createdAt,value
2017-07-17T00:00:40.110Z,0
2017-07-17T00:01:20.670Z,0
2017-07-17T00:02:01.243Z,0
2017-07-17T00:02:41.825Z,0
2017-07-17T00:03:22.398Z,0
2017-07-17T00:04:02.963Z,0
2017-07-17T00:04:43.535Z,0
2017-07-17T00:05:24.132Z,0
2017-07-17T00:06:04.727Z,0
2017-07-17T00:06:45.311Z,0
2017-07-17T00:07:25.912Z,0
2017-07-17T00:08:06.497Z,0
2017-07-17T00:08:47.104Z,0
2017-07-17T00:09:27.696Z,0
2017-07-17T00:10:08.288Z,0
2017-07-17T00:10:48.895Z,0
2017-07-17T00:11:29.465Z,0
2017-07-17T00:12:10.043Z,0
2017-07-17T00:12:50.611Z,0
2017-07-17T00:13:31.195Z,0
2017-07-17T00:14:11.778Z,0
2017-07-17T00:14:52.371Z,0
2017-07-17T00:15:32.952Z,0
2017-07-17T00:16:13.533Z,0
2017-07-17T00:16:54.120Z,0
2017-07-17T00:17:34.730Z,0
2017-07-17T00:18:15.296Z,0
2017-07-17T00:18:55.894Z,0
2017-07-17T00:19:36.480Z,0
2017-07-17T00:20:17.036Z,0
2017-07-17T00:20:57.630Z,0
2017-07-17T00:21:38.247Z,0
2017-07-17T00:22:18.877Z,0
2017-07-17T00:22:59.462Z,0
2017-07-17T00:23:40.052Z,0
2017-07-17T00:24:20.663Z,0
2017-07-17T00:25:01.239Z,0
2017-07-17T00:25:41.811Z,0
2017-07-17T00:26:22.380Z,0
2017-07-17T00:27:03.005Z,0
2017-07-17T00:27:43.594Z,0
2017-07-17T00:28:24.173Z,0
2017-07-17T00:29:04.760Z,0
2017-07-17T00:29:45.331Z,0
2017-07-17T00:30:25.915Z,0
2017-07-17T00:31:06.486Z,0
2017-07-17T00:31:47.105Z,0
2017-07-17T00:32:27.706Z,0
2017-07-17T00:33:08.270Z,0
2017-07-17T00:33:48.863Z,0
2017-07-17T00:34:29.430Z,0
2017-07-17T00:35:09.991Z,0
2017-07-17T00:35:50.568Z,0
2017-07-17T00:36:31.139Z,0
2017-07-17T00:37:11.776Z,0
2017-07-17T00:37:52.369Z,0
2017-07-17T00:38:32.959Z,0
2017-07-17T00:39:13.538Z,0
2017-07-17T00:39:54.113Z,0
2017-07-17T00:40:34.707Z,0
2017-07-17T00:41:15.286Z,0
2017-07-17T00:41:55.856Z,0
2017-07-17T00:42:36.421Z,0
2017-07-17T00:43:16.998Z,0
2017-07-17T00:43:57.634Z,0
2017-07-17T00:44:38.197Z,0
2017-07-17T00:45:18.784Z,0
2017-07-17T00:45:59.380Z,0
2017-07-17T00:46:39.965Z,0
2017-07-17T00:47:20.556Z,0
2017-07-17T00:48:01.221Z,0
2017-07-17T00:48:41.791Z,0
2017-07-17T00:49:22.365Z,0
2017-07-17T00:50:02.949Z,0
2017-07-17T00:50:43.509Z,0
2017-07-17T00:51:24.106Z,0
2017-07-17T00:52:04.699Z,0
2017-07-17T00:52:45.297Z,0
2017-07-17T00:53:25.867Z,0
2017-07-17T00:54:06.440Z,0
2017-07-17T00:54:47.027Z,0
2017-07-17T00:55:27.607Z,0
2017-07-17T00:56:08.199Z,0
2017-07-17T00:56:48.781Z,0
2017-07-17T00:57:29.379Z,0
2017-07-17T00:58:09.952Z,0
2017-07-17T00:58:50.539Z,0
2017-07-17T00:59:31.111Z,0
2017-07-17T01:00:11.679Z,0
2017-07-17T01:00:52.252Z,0
2017-07-17T01:01:32.847Z,0
2017-07-17T01:02:13.421Z,0
2017-07-17T01:02:54.013Z,0
2017-07-17T01:03:34.595Z,0
2017-07-17T01:04:15.162Z,0
2017-07-17T01:04:55.765Z,0
2017-07-17T01:05:36.386Z,0
2017-07-17T01:06:16.928Z,0
2017-07-17T01:06:57.586Z,0
2017-07-17T01:07:38.272Z,0
2017-07-17T01:08:18.862Z,0
2017-07-17T01:08:59.438Z,0
2017-07-17T01:09:39.982Z,0
2017-07-17T01:10:20.571Z,0
2017-07-17T01:11:01.163Z,0
2017-07-17T01:11:41.734Z,0
2017-07-17T01:12:22.297Z,0
2017-07-17T01:13:02.887Z,0
2017-07-17T01:13:43.475Z,0
2017-07-17T01:14:24.054Z,0
2017-07-17T01:15:04.615Z,0
2017-07-17T01:15:45.202Z,0
2017-07-17T01:16:25.855Z,0
2017-07-17T01:17:06.390Z,0
2017-07-17T01:17:46.991Z,0
2017-07-17T01:18:27.552Z,0
2017-07-17T01:19:08.157Z,0
2017-07-17T01:19:48.727Z,0
2017-07-17T01:20:29.297Z,0
2017-07-17T01:21:09.888Z,0
2017-07-17T01:21:50.521Z,0
2017-07-17T01:22:31.075Z,0
2017-07-17T01:23:11.639Z,0
2017-07-17T01:23:52.245Z,0
2017-07-17T01:24:32.857Z,0
2017-07-17T01:25:13.434Z,0
2017-07-17T01:25:54.008Z,0
2017-07-17T01:26:34.608Z,0
2017-07-17T01:27:15.191Z,0
2017-07-17T01:27:55.770Z,0
2017-07-17T01:28:36.344Z,0
2017-07-17T01:29:16.941Z,0
2017-07-17T01:29:57.535Z,0
2017-07-17T01:30:38.111Z,0
2017-07-17T01:31:18.708Z,0
2017-07-17T01:31:59.319Z,0
2017-07-17T01:32:39.929Z,0
2017-07-17T01:33:20.510Z,0
2017-07-17T01:34:01.125Z,0
2017-07-17T01:34:41.729Z,0
2017-07-17T01:35:22.366Z,0
2017-07-17T01:36:02.963Z,0
2017-07-17T01:36:43.533Z,0
2017-07-17T01:37:24.139Z,0
2017-07-17T01:38:04.730Z,0
2017-07-17T01:38:45.367Z,0
2017-07-17T01:39:25.942Z,0
2017-07-17T01:40:06.536Z,0
2017-07-17T01:40:47.156Z,0
2017-07-17T01:41:27.743Z,0
2017-07-17T01:42:08.340Z,0
2017-07-17T01:42:48.969Z,0
2017-07-17T01:43:29.540Z,0
2017-07-17T01:44:10.132Z,0
2017-07-17T01:44:50.719Z,0
2017-07-17T01:45:31.289Z,0
2017-07-17T01:46:11.864Z,0
2017-07-17T01:46:52.480Z,0
2017-07-17T01:47:33.059Z,0
2017-07-17T01:48:13.655Z,0
2017-07-17T01:48:54.231Z,0
2017-07-17T01:49:34.795Z,0
2017-07-17T01:50:15.357Z,0
2017-07-17T01:50:55.946Z,0
2017-07-17T01:51:36.538Z,0
2017-07-17T01:52:17.148Z,0
2017-07-17T01:52:57.717Z,0
2017-07-17T01:53:38.279Z,0
2017-07-17T01:54:18.937Z,0
2017-07-17T01:54:59.511Z,0
2017-07-17T01:55:40.088Z,0
2017-07-17T01:56:20.672Z,0
2017-07-17T01:57:01.230Z,0
2017-07-17T01:57:41.916Z,0
2017-07-17T01:58:22.482Z,0
2017-07-17T01:59:03.061Z,0
2017-07-17T01:59:43.627Z,0
2017-07-17T02:00:24.197Z,0
2017-07-17T02:01:04.771Z,0
2017-07-17T02:01:45.338Z,0
2017-07-17T02:02:25.971Z,0
2017-07-17T02:03:06.548Z,0
2017-07-17T02:03:47.119Z,0
2017-07-17T02:04:27.703Z,0
2017-07-17T02:05:08.282Z,0
2017-07-17T02:05:48.888Z,0
2017-07-17T02:06:29.453Z,0
2017-07-17T02:07:10.032Z,0
2017-07-17T02:07:50.624Z,0
2017-07-17T02:08:31.194Z,0
2017-07-17T02:09:11.765Z,0
2017-07-17T02:09:52.318Z,0
2017-07-17T02:10:32.960Z,0
2017-07-17T02:11:13.615Z,0
2017-07-17T02:11:54.196Z,0
2017-07-17T02:12:34.758Z,0
2017-07-17T02:13:15.356Z,0
2017-07-17T02:13:55.937Z,0
2017-07-17T02:14:36.510Z,0
2017-07-17T02:15:17.114Z,0
2017-07-17T02:15:57.681Z,0
2017-07-17T02:16:38.253Z,0
2017-07-17T02:17:18.820Z,0
2017-07-17T02:17:59.390Z,0
2017-07-17T02:18:39.962Z,0
2017-07-17T02:19:20.552Z,0
2017-07-17T02:20:01.126Z,0
2017-07-17T02:20:41.692Z,0
2017-07-17T02:21:22.273Z,0
2017-07-17T02:22:02.841Z,0
2017-07-17T02:22:43.407Z,0
2017-07-17T02:23:23.977Z,0
2017-07-17T02:24:04.623Z,0
2017-07-17T02:24:45.210Z,0
2017-07-17T02:25:25.787Z,0
2017-07-17T02:26:06.371Z,0
2017-07-17T02:26:46.933Z,0
2017-07-17T02:27:27.519Z,0
2017-07-17T02:28:08.085Z,0
2017-07-17T02:28:48.732Z,0
2017-07-17T02:29:29.308Z,0
2017-07-17T02:30:09.896Z,0
2017-07-17T02:30:50.509Z,0
2017-07-17T02:31:31.072Z,0
2017-07-17T02:32:11.643Z,0
2017-07-17T02:32:52.268Z,0
2017-07-17T02:33:32.847Z,0
2017-07-17T02:34:13.443Z,0
2017-07-17T02:34:54.053Z,0
2017-07-17T02:35:34.706Z,0
2017-07-17T02:36:15.298Z,0
2017-07-17T02:36:55.882Z,0
2017-07-17T02:37:36.484Z,0
2017-07-17T02:38:17.117Z,0
2017-07-17T02:38:57.683Z,0
2017-07-17T02:39:38.254Z,0
2017-07-17T02:40:18.831Z,0
2017-07-17T02:40:59.402Z,0
2017-07-17T02:41:40.000Z,0
2017-07-17T02:42:20.606Z,0
2017-07-17T02:43:01.178Z,4
2017-07-17T02:43:41.754Z,0
2017-07-17T02:44:22.428Z,0
2017-07-17T02:45:02.931Z,0
2017-07-17T02:45:43.520Z,0
2017-07-17T02:46:24.128Z,4
2017-07-17T02:47:04.728Z,4
2017-07-17T02:47:45.340Z,0
2017-07-17T02:48:25.930Z,4
2017-07-17T02:49:06.518Z,4
2017-07-17T02:49:47.110Z,8
2017-07-17T02:50:27.678Z,4
2017-07-17T02:51:08.272Z,12
2017-07-17T02:51:48.837Z,12
2017-07-17T02:52:29.395Z,12
2017-07-17T02:53:09.992Z,16
2017-07-17T02:53:50.617Z,16
2017-07-17T02:54:31.223Z,16
2017-07-17T02:55:11.800Z,12
2017-07-17T02:55:52.384Z,16
2017-07-17T02:56:32.942Z,16
2017-07-17T02:57:13.534Z,20
2017-07-17T02:57:54.148Z,24
2017-07-17T02:58:34.736Z,24
2017-07-17T02:59:15.332Z,28
2017-07-17T02:59:55.897Z,28
2017-07-17T03:00:36.474Z,28
2017-07-17T03:01:17.045Z,32
2017-07-17T03:01:57.617Z,32
2017-07-17T03:02:38.201Z,36
2017-07-17T03:03:18.848Z,36
2017-07-17T03:03:59.418Z,36
2017-07-17T03:04:39.999Z,44
2017-07-17T03:05:20.577Z,44
2017-07-17T03:06:01.163Z,48
2017-07-17T03:06:41.788Z,48
2017-07-17T03:07:22.377Z,52
2017-07-17T03:08:02.932Z,52
2017-07-17T03:08:43.531Z,48
2017-07-17T03:09:24.099Z,52
2017-07-17T03:10:04.694Z,56
2017-07-17T03:10:45.254Z,56
2017-07-17T03:11:25.912Z,64
2017-07-17T03:12:06.572Z,68
2017-07-17T03:12:47.172Z,68
2017-07-17T03:13:27.759Z,60
2017-07-17T03:14:08.346Z,60
2017-07-17T03:14:48.948Z,64
2017-07-17T03:15:29.535Z,72
2017-07-17T03:16:10.149Z,76
2017-07-17T03:16:50.720Z,84
2017-07-17T03:17:31.323Z,76
2017-07-17T03:18:11.935Z,64
2017-07-17T03:18:52.506Z,64
2017-07-17T03:19:33.094Z,76
2017-07-17T03:20:13.660Z,72
2017-07-17T03:20:54.238Z,72
2017-07-17T03:21:34.804Z,72
2017-07-17T03:22:15.396Z,56
2017-07-17T03:22:55.974Z,52
2017-07-17T03:23:36.526Z,48
2017-07-17T03:24:17.109Z,44
2017-07-17T03:24:57.699Z,36
2017-07-17T03:25:38.288Z,40
2017-07-17T03:26:18.863Z,48
2017-07-17T03:26:59.460Z,64
2017-07-17T03:27:40.089Z,80
2017-07-17T03:28:20.659Z,76
2017-07-17T03:29:01.273Z,88
2017-07-17T03:29:41.914Z,104
2017-07-17T03:30:22.457Z,108
2017-07-17T03:31:03.048Z,120
2017-07-17T03:31:43.612Z,124
2017-07-17T03:32:24.207Z,144
2017-07-17T03:33:04.800Z,164
2017-07-17T03:33:45.373Z,216
2017-07-17T03:34:25.965Z,244
2017-07-17T03:35:06.569Z,284
2017-07-17T03:35:47.142Z,332
2017-07-17T03:36:27.719Z,376
2017-07-17T03:37:08.306Z,400
2017-07-17T03:37:48.905Z,444
2017-07-17T03:38:29.488Z,472
2017-07-17T03:39:10.064Z,484
2017-07-17T03:39:50.633Z,512
2017-07-17T03:40:31.262Z,540
2017-07-17T03:41:11.822Z,544
2017-07-17T03:41:52.448Z,536
2017-07-17T03:42:33.025Z,532
2017-07-17T03:43:13.648Z,532
2017-07-17T03:43:54.207Z,492
2017-07-17T03:44:34.783Z,468
2017-07-17T03:45:15.391Z,472
2017-07-17T03:45:56.001Z,492
2017-07-17T03:46:36.633Z,516
2017-07-17T03:47:17.201Z,596
2017-07-17T03:47:57.791Z,732
2017-07-17T03:48:38.367Z,868
2017-07-17T03:49:18.949Z,908
2017-07-17T03:49:59.620Z,872
2017-07-17T03:50:40.211Z,848
2017-07-17T03:51:20.767Z,856
2017-07-17T03:52:01.345Z,908
2017-07-17T03:52:41.909Z,928
2017-07-17T03:53:22.508Z,940
2017-07-17T03:54:03.076Z,944
2017-07-17T03:54:43.669Z,964
2017-07-17T03:55:24.254Z,984
2017-07-17T03:56:04.820Z,996
2017-07-17T03:56:45.400Z,1072
2017-07-17T03:57:26.038Z,1116
2017-07-17T03:58:06.625Z,1108
2017-07-17T03:58:47.214Z,1076
2017-07-17T03:59:27.795Z,976
2017-07-17T04:00:08.359Z,1024
2017-07-17T04:00:48.925Z,1284
2017-07-17T04:01:29.530Z,1444
2017-07-17T04:02:10.114Z,1488
2017-07-17T04:02:50.679Z,1516
2017-07-17T04:03:31.296Z,1548
2017-07-17T04:04:11.886Z,1304
2017-07-17T04:04:52.484Z,1148
2017-07-17T04:05:33.073Z,892
2017-07-17T04:06:13.651Z,1388
2017-07-17T04:06:54.211Z,1472
2017-07-17T04:07:34.775Z,1344
2017-07-17T04:08:15.350Z,968
2017-07-17T04:08:55.918Z,740
2017-07-17T04:09:36.516Z,748
2017-07-17T04:10:17.067Z,800
2017-07-17T04:10:57.647Z,784
2017-07-17T04:11:38.214Z,884
2017-07-17T04:12:18.776Z,896
2017-07-17T04:12:59.357Z,1084
2017-07-17T04:13:39.918Z,1080
2017-07-17T04:14:20.486Z,1200
2017-07-17T04:15:01.123Z,1188
2017-07-17T04:15:41.700Z,1228
2017-07-17T04:16:22.344Z,1244
2017-07-17T04:17:02.910Z,1372
2017-07-17T04:17:43.516Z,1400
2017-07-17T04:18:24.220Z,1380
2017-07-17T04:19:04.813Z,1336
2017-07-17T04:19:45.418Z,1544
2017-07-17T04:20:25.973Z,1756
2017-07-17T04:21:06.569Z,2092
2017-07-17T04:21:47.149Z,2452
2017-07-17T04:22:27.732Z,2060
2017-07-17T04:23:08.306Z,1900
2017-07-17T04:23:48.891Z,1728
2017-07-17T04:24:29.489Z,1652
2017-07-17T04:25:10.077Z,2048
2017-07-17T04:25:50.682Z,1860
2017-07-17T04:26:31.252Z,1620
2017-07-17T04:27:11.825Z,1612
2017-07-17T04:27:52.432Z,1464
2017-07-17T04:28:33.038Z,1444
2017-07-17T04:29:13.607Z,1304
2017-07-17T04:29:54.185Z,1256
2017-07-17T04:30:34.778Z,1320
2017-07-17T04:31:15.365Z,1320
2017-07-17T04:31:55.958Z,1392
2017-07-17T04:32:36.515Z,1640
2017-07-17T04:33:17.096Z,1436
2017-07-17T04:33:57.714Z,1192
2017-07-17T04:34:38.300Z,1132
2017-07-17T04:35:18.873Z,1324
2017-07-17T04:35:59.440Z,1216
2017-07-17T04:36:40.032Z,1588
2017-07-17T04:37:20.704Z,2084
2017-07-17T04:38:01.357Z,1760
2017-07-17T04:38:41.942Z,1496
2017-07-17T04:39:22.513Z,1488
2017-07-17T04:40:03.188Z,1284
2017-07-17T04:40:43.757Z,1300
2017-07-17T04:41:24.338Z,1864
2017-07-17T04:42:04.910Z,1948
2017-07-17T04:42:45.511Z,2724
2017-07-17T04:43:26.091Z,3708
2017-07-17T04:44:06.660Z,3156
2017-07-17T04:44:47.230Z,2552
2017-07-17T04:45:27.806Z,2668
2017-07-17T04:46:08.371Z,3240
2017-07-17T04:46:48.949Z,3428
2017-07-17T04:47:29.518Z,2712
2017-07-17T04:48:10.089Z,2404
2017-07-17T04:48:50.657Z,2864
2017-07-17T04:49:31.259Z,3768
2017-07-17T04:50:11.826Z,3728
2017-07-17T04:50:52.396Z,2744
2017-07-17T04:51:32.968Z,2580
2017-07-17T04:52:13.528Z,3460
2017-07-17T04:52:54.114Z,4516
2017-07-17T04:53:34.685Z,4676
2017-07-17T04:54:15.280Z,4596
2017-07-17T04:54:55.892Z,4968
2017-07-17T04:55:36.479Z,4836
2017-07-17T04:56:17.067Z,4872
2017-07-17T04:56:57.642Z,5188
2017-07-17T04:57:38.323Z,5124
2017-07-17T04:58:18.902Z,4344
2017-07-17T04:58:59.525Z,3944
2017-07-17T04:59:40.111Z,5256
2017-07-17T05:00:20.755Z,5464
2017-07-17T05:01:01.518Z,5528
2017-07-17T05:01:42.116Z,5340
2017-07-17T05:02:22.757Z,5136
2017-07-17T05:03:03.369Z,5064
2017-07-17T05:03:43.967Z,4308
2017-07-17T05:04:25.169Z,4048
2017-07-17T05:05:05.775Z,4992
2017-07-17T05:05:46.371Z,5248
2017-07-17T05:06:27.525Z,5424
2017-07-17T05:07:07.987Z,6108
2017-07-17T05:07:48.538Z,5692
2017-07-17T05:08:29.106Z,4308
2017-07-17T05:09:09.854Z,3460
2017-07-17T05:09:50.423Z,2480
2017-07-17T05:10:31.001Z,2708
2017-07-17T05:11:11.583Z,2884
2017-07-17T05:11:52.162Z,3492
2017-07-17T05:12:32.738Z,4884
2017-07-17T05:13:13.306Z,5228
2017-07-17T05:13:53.910Z,4900
2017-07-17T05:14:34.490Z,4820
2017-07-17T05:15:15.063Z,5392
2017-07-17T05:15:55.639Z,6336
2017-07-17T05:16:36.203Z,8564
2017-07-17T05:17:16.841Z,7908
2017-07-17T05:17:57.373Z,7684
2017-07-17T05:18:37.979Z,7184
2017-07-17T05:19:18.558Z,6492
2017-07-17T05:19:59.177Z,8264
2017-07-17T05:20:39.764Z,8828
2017-07-17T05:21:20.383Z,9056
2017-07-17T05:22:00.948Z,9560
2017-07-17T05:22:41.521Z,9572
2017-07-17T05:23:22.083Z,9060
2017-07-17T05:24:02.656Z,9448
2017-07-17T05:24:43.229Z,8928
2017-07-17T05:25:23.805Z,8340
2017-07-17T05:26:04.386Z,10044
2017-07-17T05:26:44.988Z,11516
2017-07-17T05:27:25.574Z,11124
2017-07-17T05:28:06.165Z,11448
2017-07-17T05:28:46.760Z,11644
2017-07-17T05:29:27.336Z,10964
2017-07-17T05:30:07.928Z,9128
2017-07-17T05:30:48.512Z,7844
2017-07-17T05:31:29.106Z,7360
2017-07-17T05:32:09.669Z,6168
2017-07-17T05:32:50.244Z,4104
2017-07-17T05:33:30.827Z,5464
2017-07-17T05:34:11.400Z,8696
2017-07-17T05:34:51.977Z,6296
2017-07-17T05:35:32.561Z,12180
2017-07-17T05:36:13.167Z,26304
2017-07-17T05:36:53.705Z,37632
2017-07-17T05:37:34.284Z,36864
2017-07-17T05:38:14.861Z,6552
2017-07-17T05:38:55.446Z,12484
2017-07-17T05:39:36.021Z,39552
2017-07-17T05:40:16.679Z,6200
2017-07-17T05:40:57.248Z,34848
2017-07-17T05:41:37.845Z,39840
2017-07-17T05:42:18.421Z,41376
2017-07-17T05:42:59.002Z,16632
2017-07-17T05:43:39.589Z,59040
2017-07-17T05:44:20.174Z,61312
2017-07-17T05:45:00.754Z,26272
2017-07-17T05:45:41.349Z,10456
2017-07-17T05:46:21.937Z,8136
2017-07-17T05:47:02.536Z,10184
2017-07-17T05:47:43.190Z,5376
2017-07-17T05:48:23.831Z,13300
2017-07-17T05:49:04.419Z,14808
2017-07-17T05:49:44.990Z,5860
2017-07-17T05:50:25.581Z,4696
2017-07-17T05:51:06.174Z,15592
2017-07-17T05:51:46.734Z,5384
2017-07-17T05:52:27.312Z,35584
2017-07-17T05:53:08.017Z,9548
2017-07-17T05:53:48.640Z,6552
2017-07-17T05:54:29.233Z,8112
2017-07-17T05:55:09.824Z,5980
2017-07-17T05:55:50.419Z,20096
2017-07-17T05:56:30.991Z,74176
2017-07-17T05:57:11.693Z,5460
2017-07-17T05:57:52.301Z,4768
2017-07-17T05:58:32.913Z,7524
2017-07-17T05:59:13.540Z,85856
2017-07-17T05:59:54.129Z,52096
2017-07-17T06:00:34.726Z,27488
2017-07-17T06:01:15.329Z,47776
2017-07-17T06:01:55.916Z,6960
2017-07-17T06:02:36.503Z,77760
2017-07-17T06:03:17.067Z,94528
2017-07-17T06:03:57.644Z,86816
2017-07-17T06:04:38.232Z,88992
2017-07-17T06:05:18.816Z,67072
2017-07-17T06:05:59.458Z,12792
2017-07-17T06:06:40.049Z,16576
2017-07-17T06:07:20.734Z,94624
2017-07-17T06:08:01.342Z,74944
2017-07-17T06:08:41.914Z,94880
2017-07-17T06:09:22.508Z,77024
2017-07-17T06:10:03.090Z,12212
2017-07-17T06:10:43.666Z,10008
2017-07-17T06:11:24.284Z,61376
2017-07-17T06:12:04.916Z,85184
2017-07-17T06:12:45.504Z,27008
2017-07-17T06:13:26.306Z,9088
2017-07-17T06:14:06.888Z,7252
2017-07-17T06:14:47.464Z,7108
2017-07-17T06:15:28.031Z,6024
2017-07-17T06:16:08.611Z,7084
2017-07-17T06:16:49.221Z,7884
2017-07-17T06:17:29.798Z,7536
2017-07-17T06:18:10.377Z,95200
2017-07-17T06:18:50.958Z,78944
2017-07-17T06:19:31.540Z,49312
2017-07-17T06:20:12.127Z,8660
2017-07-17T06:20:52.712Z,76288
2017-07-17T06:21:33.295Z,7244
2017-07-17T06:22:13.882Z,4628
2017-07-17T06:22:54.453Z,4440
2017-07-17T06:23:35.044Z,11204
2017-07-17T06:24:15.629Z,5132
2017-07-17T06:24:56.263Z,6768
2017-07-17T06:25:36.870Z,14516
2017-07-17T06:26:17.442Z,7376
2017-07-17T06:26:58.040Z,11180
2017-07-17T06:27:38.600Z,95584
2017-07-17T06:28:19.183Z,7604
2017-07-17T06:28:59.798Z,6392
2017-07-17T06:29:40.357Z,7216
2017-07-17T06:30:20.941Z,7456
2017-07-17T06:31:01.501Z,7864
2017-07-17T06:31:42.115Z,9172
2017-07-17T06:32:22.705Z,12472
2017-07-17T06:33:03.301Z,67744
2017-07-17T06:33:43.866Z,25760
2017-07-17T06:34:24.441Z,11984
2017-07-17T06:35:05.028Z,6808
2017-07-17T06:35:45.701Z,5500
2017-07-17T06:36:26.319Z,5128
2017-07-17T06:37:06.908Z,5208
2017-07-17T06:37:47.525Z,6268
2017-07-17T06:38:28.111Z,8072
2017-07-17T06:39:08.699Z,9128
2017-07-17T06:39:49.291Z,7224
2017-07-17T06:40:29.863Z,10464
2017-07-17T06:41:10.431Z,25024
2017-07-17T06:41:51.027Z,70784
2017-07-17T06:42:31.642Z,78272
2017-07-17T06:43:12.252Z,80480
2017-07-17T06:43:52.873Z,75264
2017-07-17T06:44:33.451Z,78464
2017-07-17T06:45:14.032Z,43648
2017-07-17T06:45:54.625Z,93728
2017-07-17T06:46:35.199Z,23840
2017-07-17T06:47:15.804Z,8840
2017-07-17T06:47:56.450Z,7316
2017-07-17T06:48:37.046Z,6548
2017-07-17T06:49:17.697Z,6400
2017-07-17T06:49:58.291Z,8504
2017-07-17T06:50:38.900Z,87424
2017-07-17T06:51:19.517Z,89184
2017-07-17T06:52:00.324Z,91136
2017-07-17T06:52:40.922Z,94688
2017-07-17T06:53:21.534Z,9020
2017-07-17T06:54:02.180Z,9420
2017-07-17T06:54:42.760Z,85152
2017-07-17T06:55:23.361Z,101024
2017-07-17T06:56:03.955Z,98304
2017-07-17T06:58:38.579Z,87456
2017-07-17T06:59:19.299Z,14432
2017-07-17T06:59:59.959Z,98048
2017-07-17T07:00:40.955Z,102528
2017-07-17T07:01:21.555Z,88576
2017-07-17T07:02:02.155Z,79488
2017-07-17T07:02:42.754Z,92416
2017-07-17T07:03:23.450Z,86144
2017-07-17T07:04:04.127Z,89952
2017-07-17T07:04:44.867Z,87008
2017-07-17T07:05:26.630Z,87040
2017-07-17T07:06:07.282Z,84096
2017-07-17T07:06:47.941Z,84800
2017-07-17T07:07:29.017Z,81312
2017-07-17T07:08:09.613Z,74016
2017-07-17T07:08:50.199Z,76992
2017-07-17T07:09:30.781Z,81952
2017-07-17T07:10:11.370Z,88352
2017-07-17T07:10:52.039Z,75040
2017-07-17T07:11:32.664Z,12692
2017-07-17T07:12:13.288Z,69216
2017-07-17T07:12:53.907Z,18944
2017-07-17T07:13:34.447Z,10836
2017-07-17T07:14:15.038Z,6976
2017-07-17T07:14:55.629Z,7304
2017-07-17T07:15:36.309Z,7884
2017-07-17T07:16:16.881Z,6808
2017-07-17T07:16:57.466Z,5800
2017-07-17T07:17:38.080Z,7608
2017-07-17T07:18:18.625Z,23776
2017-07-17T07:18:59.221Z,58720
2017-07-17T07:19:39.818Z,11620
2017-07-17T07:20:20.406Z,8812
2017-07-17T07:21:00.991Z,8268
2017-07-17T07:21:41.570Z,8096
2017-07-17T07:22:22.159Z,6348
2017-07-17T07:23:02.782Z,5596
2017-07-17T07:23:43.362Z,6096
2017-07-17T07:24:23.977Z,6852
2017-07-17T07:25:04.549Z,6764
2017-07-17T07:25:45.153Z,6188
2017-07-17T07:26:25.729Z,5732
2017-07-17T07:27:06.318Z,5312
2017-07-17T07:27:46.908Z,5008
2017-07-17T07:28:27.483Z,4912
2017-07-17T07:29:08.096Z,5308
2017-07-17T07:29:48.691Z,5984
2017-07-17T07:30:29.266Z,6096
2017-07-17T07:31:09.848Z,5712
2017-07-17T07:31:50.442Z,5096
2017-07-17T07:32:31.025Z,4548
2017-07-17T07:33:11.613Z,4132
2017-07-17T07:33:52.198Z,3860
2017-07-17T07:34:32.776Z,4576
2017-07-17T07:35:13.349Z,6144
2017-07-17T07:35:53.919Z,11432
2017-07-17T07:36:34.504Z,63232
2017-07-17T07:37:15.076Z,14620
2017-07-17T07:37:55.676Z,74240
2017-07-17T07:38:36.313Z,88832
2017-07-17T07:39:16.888Z,92992
2017-07-17T07:39:57.462Z,92128
2017-07-17T07:40:38.738Z,93728
2017-07-17T07:41:19.512Z,26784
2017-07-17T07:42:00.049Z,95040
2017-07-17T07:42:40.690Z,91328
2017-07-17T07:43:21.272Z,88000
2017-07-17T07:44:01.877Z,89408
2017-07-17T07:44:42.672Z,89024
2017-07-17T07:45:23.219Z,91328
2017-07-17T07:46:03.890Z,94912
2017-07-17T07:46:44.586Z,92896
2017-07-17T07:47:25.352Z,91520
2017-07-17T07:48:06.034Z,88672
2017-07-17T07:48:46.719Z,87648
2017-07-17T07:49:27.301Z,88160
2017-07-17T07:50:07.891Z,91168
2017-07-17T07:50:48.607Z,91904
2017-07-17T07:51:29.211Z,91584
2017-07-17T07:52:10.047Z,79008
2017-07-17T07:52:50.890Z,24096
2017-07-17T07:53:31.516Z,12832
2017-07-17T07:54:12.316Z,92416
2017-07-17T07:54:52.929Z,49632
2017-07-17T07:55:33.862Z,98912
2017-07-17T07:56:14.557Z,98592
2017-07-17T07:56:55.236Z,96928
2017-07-17T07:57:35.971Z,98048
2017-07-17T07:58:16.573Z,99776
2017-07-17T07:58:57.166Z,93568
2017-07-17T07:59:37.767Z,99008
2017-07-17T08:00:18.349Z,37312
2017-07-17T08:00:58.933Z,98656
2017-07-17T08:01:39.585Z,97728
2017-07-17T08:02:20.449Z,96576
2017-07-17T08:03:01.105Z,95552
2017-07-17T08:03:41.683Z,76384
2017-07-17T08:04:22.302Z,26016
2017-07-17T08:05:02.906Z,27488
2017-07-17T08:05:43.506Z,99040
2017-07-17T08:06:24.109Z,97696
2017-07-17T08:07:04.711Z,28352
2017-07-17T08:07:45.298Z,16392
2017-07-17T08:08:25.871Z,14624
2017-07-17T08:09:06.441Z,13328
2017-07-17T08:09:47.053Z,9996
2017-07-17T08:10:27.628Z,8512
2017-07-17T08:11:08.212Z,7896
2017-07-17T08:11:48.785Z,21728
2017-07-17T08:12:29.357Z,12204
2017-07-17T08:13:10.073Z,21568
2017-07-17T08:13:50.697Z,22048
2017-07-17T08:14:31.325Z,11120
2017-07-17T08:15:11.922Z,7560
2017-07-17T08:15:52.508Z,7752
2017-07-17T08:16:33.077Z,17952
2017-07-17T08:17:13.658Z,17344
2017-07-17T08:17:54.263Z,17120
2017-07-17T08:18:34.829Z,16896
2017-07-17T08:19:15.395Z,16672
2017-07-17T08:19:55.954Z,15616
2017-07-17T08:20:36.556Z,15424
2017-07-17T08:21:17.132Z,14792
2017-07-17T08:21:57.755Z,12960
2017-07-17T08:22:38.353Z,11688
2017-07-17T08:23:18.907Z,11776
2017-07-17T08:23:59.489Z,13412
2017-07-17T08:24:40.081Z,13232
2017-07-17T08:25:20.981Z,12884
2017-07-17T08:26:01.452Z,12520
2017-07-17T08:26:42.100Z,12172
2017-07-17T08:27:22.652Z,11708
2017-07-17T08:28:03.274Z,11704
2017-07-17T08:28:43.851Z,11472
2017-07-17T08:29:24.466Z,10948
2017-07-17T08:30:05.028Z,10628
2017-07-17T08:30:45.606Z,10580
2017-07-17T08:31:26.188Z,10428
2017-07-17T08:32:06.785Z,10876
2017-07-17T08:32:47.393Z,7536
2017-07-17T08:33:27.969Z,9296
2017-07-17T08:34:08.582Z,6564
2017-07-17T08:34:49.192Z,6044
2017-07-17T08:35:29.779Z,6080
2017-07-17T08:36:10.389Z,6824
2017-07-17T08:36:50.961Z,10184
2017-07-17T08:37:31.565Z,11676
2017-07-17T08:38:12.168Z,9912
2017-07-17T08:38:52.732Z,8136
2017-07-17T08:39:33.324Z,11420
2017-07-17T08:40:13.897Z,10672
2017-07-17T08:40:54.605Z,7300
2017-07-17T08:41:35.192Z,10688
2017-07-17T08:42:15.775Z,8276
2017-07-17T08:42:56.343Z,9008
2017-07-17T08:43:36.979Z,8576
2017-07-17T08:44:17.608Z,8736
2017-07-17T08:44:58.191Z,8556
2017-07-17T08:45:38.762Z,10932
2017-07-17T08:46:19.384Z,8632
2017-07-17T08:46:59.999Z,8820
2017-07-17T08:47:40.626Z,9812
2017-07-17T08:48:21.242Z,10964
2017-07-17T08:49:01.813Z,11248
2017-07-17T08:49:42.371Z,11100
2017-07-17T08:50:22.951Z,10624
2017-07-17T08:51:03.544Z,9680
2017-07-17T08:51:44.133Z,8732
2017-07-17T08:52:24.734Z,7984
2017-07-17T08:53:05.324Z,7524
2017-07-17T08:53:45.960Z,7472
2017-07-17T08:54:26.520Z,7604
2017-07-17T08:55:07.192Z,7800
2017-07-17T08:55:48.202Z,8140
2017-07-17T08:56:28.861Z,8196
2017-07-17T08:57:10.365Z,7952
2017-07-17T08:57:51.159Z,7876
2017-07-17T08:58:31.871Z,7976
2017-07-17T08:59:12.454Z,8148
2017-07-17T08:59:53.223Z,8024
2017-07-17T09:00:34.229Z,7428
2017-07-17T09:01:14.809Z,6940
2017-07-17T09:01:55.384Z,6616
2017-07-17T09:02:35.953Z,6404
2017-07-17T09:03:16.657Z,6236
2017-07-17T09:03:57.332Z,6104
2017-07-17T09:04:37.981Z,6060
2017-07-17T09:05:18.551Z,5508
2017-07-17T09:05:59.156Z,5760
2017-07-17T09:06:39.869Z,6192
2017-07-17T09:07:20.597Z,5492
2017-07-17T09:08:01.409Z,5464
2017-07-17T09:08:42.085Z,6232
2017-07-17T09:09:23.519Z,6180
2017-07-17T09:10:04.426Z,6052
2017-07-17T09:10:45.288Z,6032
2017-07-17T09:11:26.257Z,6020
2017-07-17T09:12:07.014Z,5956
2017-07-17T09:12:47.631Z,5840
2017-07-17T09:13:28.303Z,5664
2017-07-17T09:14:09.236Z,5436
2017-07-17T09:14:50.926Z,5256
2017-07-17T09:15:31.936Z,5048
2017-07-17T09:16:12.612Z,4956
2017-07-17T09:16:53.889Z,4892
2017-07-17T09:17:35.475Z,4836
2017-07-17T09:18:16.768Z,4752
2017-07-17T09:18:57.802Z,4680